Time;durP1;ratioP1;P1;durP2;ratioP2;P2;SDS_P1;SDS_P2;PMS_P1;PMS_P2;Temp;Humidity;BMP_temperature;BMP_pressure;BME280_temperature;BME280_humidity;BME280_pressure;Samples;Min_cycle;Max_cycle;Signal;HPM_P1;HPM_P2
2023/07/09 00:00:50;;;;;;;6.60;6.10;;;26.40;57.70;;;;;;4989210;28;20550;-86
2023/07/09 00:03:17;;;;;;;5.87;5.47;;;26.30;59.00;;;;;;4996451;28;20527;-86
2023/07/09 00:05:45;;;;;;;5.23;5.03;;;26.30;60.40;;;;;;4996656;28;20452;-87
2023/07/09 00:08:27;;;;;;;7.57;6.93;;;26.30;60.50;;;;;;4996640;28;20441;-87
2023/07/09 00:10:55;;;;;;;6.00;5.50;;;26.20;59.60;;;;;;4982658;28;20433;-87
2023/07/09 00:13:21;;;;;;;6.03;5.73;;;26.00;61.00;;;;;;4996750;28;20447;-86
2023/07/09 00:15:48;;;;;;;6.17;5.77;;;26.00;61.00;;;;;;4992606;28;20646;-87
2023/07/09 00:18:14;;;;;;;6.13;5.73;;;26.00;61.50;;;;;;4989833;28;20438;-87
2023/07/09 00:20:43;;;;;;;5.50;5.20;;;26.00;62.70;;;;;;4994779;28;20455;-86
2023/07/09 00:23:13;;;;;;;6.27;6.03;;;25.90;63.60;;;;;;4991495;28;20214;-86
2023/07/09 00:25:44;;;;;;;6.17;5.30;;;25.90;65.30;;;;;;5001261;28;20412;-86
2023/07/09 00:28:18;;;;;;;6.20;5.80;;;25.80;68.00;;;;;;4993111;28;20445;-87
2023/07/09 00:30:46;;;;;;;6.50;5.97;;;25.70;70.10;;;;;;4990807;28;20460;-86
2023/07/09 00:33:14;;;;;;;6.77;5.67;;;25.60;72.60;;;;;;4996142;28;20441;-87
2023/07/09 00:35:41;;;;;;;6.40;5.83;;;25.50;74.30;;;;;;4993642;28;20410;-87
2023/07/09 00:38:13;;;;;;;5.70;5.50;;;25.50;76.00;;;;;;4993827;28;20437;-86
2023/07/09 00:40:46;;;;;;;7.70;6.10;;;25.50;76.10;;;;;;4999755;28;20412;-86
2023/07/09 00:43:16;;;;;;;5.50;5.00;;;25.60;74.80;;;;;;5001343;28;20468;-85
2023/07/09 00:45:41;;;;;;;6.70;6.00;;;25.50;75.30;;;;;;4996292;28;20937;-86
2023/07/09 00:48:14;;;;;;;6.10;5.70;;;25.50;75.70;;;;;;4996369;28;20603;-86
2023/07/09 00:50:50;;;;;;;7.23;6.53;;;25.60;74.70;;;;;;4982510;28;20158;-86
2023/07/09 00:53:22;;;;;;;6.80;6.20;;;25.60;72.10;;;;;;4996855;28;20486;-86
2023/07/09 00:55:57;;;;;;;6.77;6.37;;;25.70;72.50;;;;;;5000649;28;20447;-87
2023/07/09 00:58:26;;;;;;;8.63;6.53;;;25.70;73.00;;;;;;4983335;28;20433;-84
2023/07/09 01:00:57;;;;;;;6.40;6.03;;;25.70;72.30;;;;;;4987850;28;20762;-86
2023/07/09 01:03:33;;;;;;;6.70;6.20;;;25.60;73.50;;;;;;5000589;28;20492;-84
2023/07/09 01:05:58;;;;;;;5.83;5.30;;;25.60;74.70;;;;;;5006448;28;20505;-87
2023/07/09 01:08:25;;;;;;;6.70;6.13;;;25.50;75.10;;;;;;5000942;28;20445;-85
2023/07/09 01:10:50;;;;;;;7.47;6.80;;;25.50;78.20;;;;;;5005634;28;20504;-86
2023/07/09 01:13:19;;;;;;;6.20;5.90;;;25.40;81.90;;;;;;4994536;28;20413;-87
2023/07/09 01:15:46;;;;;;;6.77;6.33;;;25.30;84.10;;;;;;4999839;28;20190;-86
2023/07/09 01:18:12;;;;;;;6.93;6.23;;;25.30;85.80;;;;;;4988533;28;20434;-86
2023/07/09 01:20:38;;;;;;;7.57;6.90;;;25.20;89.90;;;;;;5000100;28;20444;-87
2023/07/09 01:23:05;;;;;;;6.50;6.00;;;25.10;90.80;;;;;;5010246;28;20281;-87
2023/07/09 01:25:31;;;;;;;5.90;5.57;;;25.10;92.20;;;;;;5003961;28;20430;-88
2023/07/09 01:27:57;;;;;;;7.47;6.77;;;24.90;93.40;;;;;;4998547;28;20472;-87
2023/07/09 01:30:33;;;;;;;7.10;6.60;;;24.80;95.70;;;;;;4998445;28;20440;-84
2023/07/09 01:33:00;;;;;;;6.17;5.87;;;24.70;96.30;;;;;;4990842;28;20448;-85
2023/07/09 01:35:28;;;;;;;7.50;7.00;;;24.50;97.30;;;;;;5005054;28;20428;-85
2023/07/09 01:37:54;;;;;;;7.63;7.17;;;24.30;99.10;;;;;;4991841;28;20444;-85
2023/07/09 01:40:23;;;;;;;7.40;6.70;;;24.30;99.90;;;;;;5000897;28;20441;-87
2023/07/09 01:42:50;;;;;;;6.80;6.30;;;24.30;99.90;;;;;;5000784;28;20511;-85
2023/07/09 01:45:16;;;;;;;6.63;6.23;;;24.40;99.90;;;;;;4998712;28;20999;-86
2023/07/09 01:47:43;;;;;;;6.77;6.33;;;24.30;99.90;;;;;;4981632;28;20453;-85
2023/07/09 01:50:09;;;;;;;5.93;5.70;;;24.30;99.90;;;;;;4998642;28;20444;-85
2023/07/09 01:52:37;;;;;;;6.20;5.90;;;24.20;99.90;;;;;;4996887;28;20484;-85
2023/07/09 01:55:03;;;;;;;6.90;6.43;;;24.20;99.90;;;;;;4997654;28;20444;-85
2023/07/09 01:57:35;;;;;;;6.70;6.30;;;24.10;99.90;;;;;;4991410;28;20442;-85
2023/07/09 02:00:05;;;;;;;6.17;5.90;;;24.00;99.90;;;;;;4991711;28;20452;-85
2023/07/09 02:02:32;;;;;;;7.03;6.50;;;23.90;99.90;;;;;;4997325;28;20485;-86
2023/07/09 02:04:58;;;;;;;7.00;6.50;;;23.70;99.90;;;;;;5005130;28;20420;-87
2023/07/09 02:07:24;;;;;;;6.73;6.37;;;23.60;99.90;;;;;;5000790;28;20441;-83
2023/07/09 02:09:51;;;;;;;6.30;6.10;;;23.60;99.90;;;;;;4998454;28;20539;-86
2023/07/09 02:12:17;;;;;;;6.90;6.37;;;23.60;99.90;;;;;;4999018;28;20464;-85
2023/07/09 02:14:44;;;;;;;7.10;6.57;;;23.60;99.90;;;;;;5000603;28;20453;-85
2023/07/09 02:17:12;;;;;;;7.00;6.60;;;23.60;99.90;;;;;;5007143;28;20420;-86
2023/07/09 02:19:38;;;;;;;7.10;6.70;;;23.60;99.90;;;;;;5001052;28;20460;-86
2023/07/09 02:22:04;;;;;;;6.90;6.50;;;23.50;99.90;;;;;;4995488;28;20461;-84
2023/07/09 02:24:30;;;;;;;6.63;6.33;;;23.40;99.90;;;;;;4994932;28;20170;-83
2023/07/09 02:26:58;;;;;;;7.70;7.30;;;23.30;99.90;;;;;;5007889;28;20440;-85
2023/07/09 02:29:24;;;;;;;6.90;6.43;;;23.20;99.90;;;;;;4998845;28;20456;-85
2023/07/09 02:31:51;;;;;;;6.97;6.47;;;23.20;99.90;;;;;;5001348;28;20440;-86
2023/07/09 02:34:18;;;;;;;7.10;6.70;;;23.10;99.90;;;;;;4999562;28;20441;-86
2023/07/09 02:36:44;;;;;;;7.20;6.70;;;23.00;99.90;;;;;;4998058;28;20446;-86
2023/07/09 02:39:11;;;;;;;6.60;6.10;;;23.00;99.90;;;;;;4998313;28;20444;-84
2023/07/09 02:41:37;;;;;;;7.10;6.60;;;23.00;99.90;;;;;;4998562;28;20449;-85
2023/07/09 02:44:03;;;;;;;7.00;6.60;;;22.90;99.90;;;;;;4998708;28;20452;-86
2023/07/09 02:46:29;;;;;;;7.70;7.10;;;23.00;99.90;;;;;;5013052;23;20477;-85
2023/07/09 02:48:56;;;;;;;13.70;12.70;;;22.90;99.90;;;;;;4996131;28;20453;-86
2023/07/09 02:51:26;;;;;;;8.23;7.63;;;22.90;99.90;;;;;;4993650;28;20449;-86
2023/07/09 02:53:54;;;;;;;7.90;7.30;;;22.80;99.90;;;;;;4989971;28;20425;-85
2023/07/09 02:56:20;;;;;;;7.53;6.93;;;22.80;99.90;;;;;;4996545;28;20442;-85
2023/07/09 02:58:49;;;;;;;7.00;6.60;;;22.80;99.90;;;;;;4990926;28;20436;-86
2023/07/09 03:01:15;;;;;;;7.07;6.77;;;22.80;99.90;;;;;;4992417;28;20437;-85
2023/07/09 03:04:21;;;;;;;6.90;6.57;;;22.80;99.90;;;;;;5228937;23;20494;-96
2023/07/09 03:06:49;;;;;;;7.07;6.70;;;22.80;99.90;;;;;;4987945;28;20211;-95
2023/07/09 03:09:18;;;;;;;6.87;6.47;;;22.90;99.90;;;;;;5021302;23;20506;-85
2023/07/09 03:11:44;;;;;;;7.13;6.57;;;22.90;99.90;;;;;;4976424;29;20474;-86
2023/07/09 03:14:12;;;;;;;7.40;6.90;;;22.80;99.90;;;;;;4973202;29;20438;-86
2023/07/09 03:16:38;;;;;;;7.50;7.00;;;22.70;99.90;;;;;;4953119;29;20435;-85
2023/07/09 03:19:04;;;;;;;7.40;6.90;;;22.80;99.90;;;;;;4947215;29;20425;-86
2023/07/09 03:21:33;;;;;;;7.57;7.17;;;22.80;99.90;;;;;;4962699;29;20219;-86
2023/07/09 03:23:59;;;;;;;7.80;7.30;;;22.70;99.90;;;;;;4947622;29;20427;-86
2023/07/09 03:26:25;;;;;;;7.77;7.17;;;22.70;99.90;;;;;;4957966;29;20423;-85
2023/07/09 03:28:52;;;;;;;8.27;7.60;;;22.60;99.90;;;;;;4949358;29;20479;-85
2023/07/09 03:31:18;;;;;;;8.13;7.50;;;22.60;99.90;;;;;;4948253;29;20537;-86
2023/07/09 03:37:06;;;;;;;7.37;6.97;;;22.70;99.90;;;;;;4994359;28;20475;-92
2023/07/09 03:39:36;;;;;;;8.73;8.13;;;22.60;99.90;;;;;;4991893;28;20456;-92
2023/07/09 03:42:13;;;;;;;8.03;7.43;;;22.60;99.90;;;;;;4981824;28;20496;-93
2023/07/09 03:44:55;;;;;;;8.03;7.53;;;22.60;99.90;;;;;;4971289;28;20420;-93
2023/07/09 03:47:37;;;;;;;8.40;7.80;;;22.50;99.90;;;;;;4997329;28;20628;-93
2023/07/09 03:50:16;;;;;;;7.27;6.83;;;22.50;99.90;;;;;;4988044;28;20523;-92
2023/07/09 03:53:22;;;;;;;8.30;7.70;;;22.40;99.90;;;;;;4964613;28;21006;-93
2023/07/09 03:55:49;;;;;;;7.27;6.77;;;22.50;99.90;;;;;;4986382;28;20424;-93
2023/07/09 03:58:15;;;;;;;8.60;7.80;;;22.50;99.90;;;;;;4965843;28;20477;-93
2023/07/09 04:00:46;;;;;;;8.47;7.87;;;22.40;99.90;;;;;;4977773;28;20432;-93
2023/07/09 04:03:17;;;;;;;7.77;7.37;;;22.40;99.90;;;;;;4997985;28;21009;-93
2023/07/09 04:05:50;;;;;;;8.50;7.63;;;22.40;99.90;;;;;;4975612;28;20715;-91
2023/07/09 04:08:19;;;;;;;7.47;7.07;;;22.30;99.90;;;;;;4992334;28;20414;-92
2023/07/09 04:10:52;;;;;;;8.00;7.37;;;22.30;99.90;;;;;;4969335;28;20502;-94
2023/07/09 04:13:23;;;;;;;7.00;6.60;;;22.30;99.90;;;;;;4979473;28;20472;-91
2023/07/09 04:15:49;;;;;;;8.23;7.63;;;22.30;99.90;;;;;;4982255;28;21033;-92
2023/07/09 04:18:23;;;;;;;8.63;7.77;;;22.40;99.90;;;;;;4970481;28;20429;-93
2023/07/09 04:20:50;;;;;;;7.80;7.27;;;22.50;99.90;;;;;;4974118;28;20931;-93
2023/07/09 04:23:24;;;;;;;8.13;7.63;;;22.40;99.90;;;;;;4974699;28;20461;-93
2023/07/09 04:26:01;;;;;;;7.30;6.90;;;22.40;99.90;;;;;;4977938;28;20439;-93
2023/07/09 04:28:34;;;;;;;8.40;7.27;;;22.40;99.90;;;;;;4981645;28;20451;-93
2023/07/09 04:31:06;;;;;;;8.07;7.37;;;22.40;99.90;;;;;;4974198;28;20428;-92
2023/07/09 04:33:52;;;;;;;8.37;7.70;;;22.60;99.90;;;;;;4986041;28;20544;-93
2023/07/09 04:38:54;;;;;;;8.40;7.60;;;22.60;99.90;;;;;;5113300;23;20480;-86
2023/07/09 04:41:20;;;;;;;7.70;7.17;;;22.60;99.90;;;;;;5001219;28;20428;-87
2023/07/09 04:43:45;;;;;;;7.87;7.37;;;22.60;99.90;;;;;;5010336;28;20261;-85
2023/07/09 04:46:11;;;;;;;7.23;6.70;;;22.70;99.90;;;;;;5000933;28;20182;-87
2023/07/09 04:48:38;;;;;;;7.87;7.20;;;22.90;99.90;;;;;;4991847;28;20218;-86
2023/07/09 04:51:04;;;;;;;7.97;7.40;;;23.20;99.90;;;;;;4994548;28;20177;-86
2023/07/09 04:53:29;;;;;;;7.83;7.10;;;23.40;99.90;;;;;;4981815;28;20449;-85
2023/07/09 04:58:32;;;;;;;8.10;7.37;;;23.70;99.90;;;;;;5184646;23;20251;-85
2023/07/09 05:03:36;;;;;;;7.07;6.57;;;24.20;99.90;;;;;;4984959;23;20481;-86
2023/07/09 05:06:03;;;;;;;8.23;7.53;;;24.60;99.90;;;;;;4962422;29;20433;-86
2023/07/09 05:08:29;;;;;;;7.40;6.73;;;25.00;99.90;;;;;;4961939;29;20510;-86
2023/07/09 05:10:57;;;;;;;7.43;6.83;;;25.20;99.90;;;;;;4974570;29;20450;-86
2023/07/09 05:13:24;;;;;;;7.53;6.90;;;25.40;99.90;;;;;;4979410;29;20206;-85
2023/07/09 05:15:55;;;;;;;7.67;6.70;;;25.80;99.90;;;;;;4976056;28;20474;-87
2023/07/09 05:18:23;;;;;;;8.50;7.57;;;26.00;99.90;;;;;;4976016;28;20426;-86
2023/07/09 05:20:52;;;;;;;6.73;6.33;;;26.20;99.90;;;;;;4962748;28;20442;-86
2023/07/09 05:23:20;;;;;;;6.90;6.60;;;26.40;99.90;;;;;;4981410;28;20497;-88
2023/07/09 05:25:48;;;;;;;7.53;7.03;;;26.50;99.90;;;;;;4979577;29;20410;-86
2023/07/09 05:28:14;;;;;;;7.73;7.10;;;26.70;99.90;;;;;;4969665;29;20470;-87
2023/07/09 05:30:43;;;;;;;7.53;7.10;;;26.80;99.90;;;;;;4979488;28;20450;-86
2023/07/09 05:38:45;;;;;;;7.20;6.63;;;27.50;99.90;;;;;;5132255;23;20496;-86
2023/07/09 05:41:11;;;;;;;7.90;7.33;;;27.60;99.90;;;;;;5009129;28;20448;-87
2023/07/09 05:43:39;;;;;;;7.30;6.90;;;27.90;99.90;;;;;;5004224;28;20455;-87
2023/07/09 05:46:05;;;;;;;6.93;6.53;;;28.30;99.90;;;;;;5018109;28;20444;-86
2023/07/09 05:48:33;;;;;;;7.37;6.67;;;28.60;99.40;;;;;;5018535;28;20459;-87
2023/07/09 05:50:59;;;;;;;6.90;6.50;;;28.80;98.30;;;;;;5014571;28;20467;-87
2023/07/09 05:53:24;;;;;;;7.17;6.67;;;28.90;97.70;;;;;;5014426;28;20480;-84
2023/07/09 05:55:54;;;;;;;7.87;7.13;;;28.90;97.50;;;;;;5012302;28;20192;-86
2023/07/09 05:58:20;;;;;;;7.37;7.00;;;29.20;97.30;;;;;;5015640;28;20177;-86
2023/07/09 06:00:46;;;;;;;7.70;7.40;;;29.30;95.90;;;;;;5009446;28;20432;-87
2023/07/09 06:03:11;;;;;;;7.37;6.77;;;29.10;95.30;;;;;;5010821;28;20318;-85
2023/07/09 06:05:37;;;;;;;7.87;7.37;;;29.00;95.80;;;;;;5013198;28;20443;-84
2023/07/09 06:08:04;;;;;;;8.00;7.20;;;29.10;96.10;;;;;;5006253;28;20183;-85
2023/07/09 06:10:30;;;;;;;7.23;6.70;;;29.30;96.00;;;;;;5010062;28;20197;-85
2023/07/09 06:12:58;;;;;;;6.77;6.27;;;29.70;95.20;;;;;;5003031;28;20645;-85
2023/07/09 06:15:24;;;;;;;7.43;6.70;;;29.80;94.70;;;;;;4983398;28;20421;-83
2023/07/09 06:17:50;;;;;;;11.23;6.63;;;30.00;94.00;;;;;;5011023;28;20468;-85
2023/07/09 06:20:16;;;;;;;7.50;7.00;;;30.10;93.10;;;;;;5008069;28;20459;-86
2023/07/09 06:22:41;;;;;;;9.50;6.37;;;30.10;93.40;;;;;;4997028;28;20200;-85
2023/07/09 06:25:07;;;;;;;7.63;6.90;;;30.50;92.50;;;;;;5000748;28;20200;-85
2023/07/09 06:27:33;;;;;;;6.37;5.93;;;30.80;90.60;;;;;;5011181;28;20252;-84
2023/07/09 06:29:58;;;;;;;7.27;6.77;;;30.80;89.40;;;;;;4988528;28;20193;-85
2023/07/09 06:32:24;;;;;;;7.50;6.60;;;30.70;89.70;;;;;;5006121;28;20223;-85
2023/07/09 06:34:50;;;;;;;7.53;6.73;;;30.80;88.60;;;;;;5013811;28;20232;-86
2023/07/09 06:37:15;;;;;;;9.70;7.37;;;31.30;85.50;;;;;;5000397;28;20224;-85
2023/07/09 06:39:41;;;;;;;8.97;6.37;;;31.80;83.10;;;;;;4985075;28;20448;-86
2023/07/09 06:42:07;;;;;;;7.53;6.80;;;32.10;79.90;;;;;;5000718;28;20194;-86
2023/07/09 06:44:32;;;;;;;7.63;6.83;;;32.30;77.50;;;;;;5005246;28;20205;-86
2023/07/09 06:46:58;;;;;;;7.50;7.10;;;32.40;76.90;;;;;;5003485;28;20804;-86
2023/07/09 06:49:25;;;;;;;7.60;6.97;;;32.60;75.10;;;;;;4999128;28;20185;-85
2023/07/09 06:51:50;;;;;;;7.53;6.83;;;33.00;73.20;;;;;;5002197;28;20216;-85
2023/07/09 06:54:16;;;;;;;7.60;7.03;;;33.30;71.10;;;;;;5007102;28;20413;-86
2023/07/09 06:56:42;;;;;;;6.43;6.00;;;33.40;71.30;;;;;;5000367;28;20305;-86
2023/07/09 06:59:07;;;;;;;6.33;5.90;;;33.70;69.50;;;;;;4985516;28;20213;-85
2023/07/09 07:01:33;;;;;;;7.73;6.73;;;33.70;67.70;;;;;;5004877;28;20216;-85
2023/07/09 07:03:58;;;;;;;6.73;6.43;;;34.00;66.70;;;;;;5008154;28;20209;-84
2023/07/09 07:06:24;;;;;;;7.17;6.60;;;34.20;65.10;;;;;;5000264;28;20201;-85
2023/07/09 07:08:50;;;;;;;6.93;6.43;;;34.30;63.20;;;;;;5002177;28;20248;-86
2023/07/09 07:11:15;;;;;;;9.97;6.83;;;34.80;61.50;;;;;;5001108;28;20189;-87
2023/07/09 07:13:43;;;;;;;7.57;7.07;;;35.40;59.70;;;;;;5008738;28;20301;-87
2023/07/09 07:16:11;;;;;;;7.03;6.43;;;36.00;58.20;;;;;;5009688;28;20169;-86
2023/07/09 07:18:37;;;;;;;6.73;6.23;;;36.50;57.20;;;;;;5000664;28;20441;-83
2023/07/09 07:21:04;;;;;;;7.13;6.83;;;36.80;55.60;;;;;;5010115;28;20447;-87
2023/07/09 07:23:30;;;;;;;6.80;6.50;;;36.60;55.80;;;;;;5002537;28;20445;-86
2023/07/09 07:25:55;;;;;;;5.83;5.63;;;36.60;54.80;;;;;;5013239;28;20547;-88
2023/07/09 07:28:22;;;;;;;7.00;6.47;;;37.00;55.30;;;;;;5004503;28;20187;-87
2023/07/09 07:31:01;;;;;;;8.37;7.43;;;37.30;54.30;;;;;;5005893;28;20201;-85
2023/07/09 07:33:26;;;;;;;8.43;6.67;;;37.80;53.20;;;;;;4996177;28;20835;-86
2023/07/09 07:35:52;;;;;;;6.60;6.20;;;38.40;52.30;;;;;;5005371;28;20436;-87
2023/07/09 07:38:17;;;;;;;6.57;6.30;;;39.00;51.10;;;;;;5004108;28;20217;-87
2023/07/09 07:40:46;;;;;;;6.17;5.80;;;39.20;50.60;;;;;;5003036;28;20190;-88
2023/07/09 07:43:11;;;;;;;6.67;6.37;;;39.00;49.30;;;;;;5013578;28;20173;-88
2023/07/09 07:45:41;;;;;;;6.87;6.57;;;39.10;49.70;;;;;;5246504;23;20486;-86
2023/07/09 07:50:38;;;;;;;7.10;6.60;;;39.00;48.60;;;;;;4969511;28;20489;-85
2023/07/09 07:53:04;;;;;;;6.53;6.23;;;39.20;49.00;;;;;;4954112;29;20473;-86
2023/07/09 07:55:30;;;;;;;6.40;6.10;;;39.20;49.00;;;;;;4970428;28;20474;-84
2023/07/09 07:57:56;;;;;;;7.43;7.07;;;39.50;48.00;;;;;;4954194;29;20198;-86
2023/07/09 08:00:25;;;;;;;6.70;6.37;;;39.60;47.50;;;;;;4966972;28;20973;-87
2023/07/09 08:02:51;;;;;;;7.50;7.00;;;40.10;47.50;;;;;;4969816;28;20515;-86
2023/07/09 08:05:17;;;;;;;6.13;5.83;;;40.10;47.60;;;;;;4977969;28;20458;-86
2023/07/09 08:07:42;;;;;;;7.23;6.60;;;40.20;47.00;;;;;;4970440;28;20193;-87
2023/07/09 08:10:08;;;;;;;6.20;6.00;;;40.60;47.00;;;;;;4961892;28;20227;-87
2023/07/09 08:12:34;;;;;;;6.07;5.77;;;40.80;46.80;;;;;;4958785;28;20242;-87
2023/07/09 08:15:00;;;;;;;6.87;6.47;;;41.20;46.80;;;;;;4954973;28;20458;-87
2023/07/09 08:17:25;;;;;;;6.83;6.27;;;41.40;46.20;;;;;;4948301;28;20266;-86
2023/07/09 08:19:54;;;;;;;7.30;6.70;;;40.90;45.80;;;;;;4924216;29;20195;-84
2023/07/09 08:22:21;;;;;;;6.97;6.60;;;40.50;46.60;;;;;;4924407;29;20230;-86
2023/07/09 08:24:48;;;;;;;6.43;6.10;;;40.60;46.80;;;;;;4951875;28;20534;-86
2023/07/09 08:27:14;;;;;;;6.67;6.40;;;41.00;46.70;;;;;;4953187;28;20437;-86
2023/07/09 08:29:41;;;;;;;6.57;6.17;;;40.90;46.20;;;;;;4948036;28;21242;-87
2023/07/09 08:32:08;;;;;;;7.30;6.60;;;41.00;45.40;;;;;;4945884;28;20852;-85
2023/07/09 08:34:33;;;;;;;7.00;6.67;;;41.60;45.00;;;;;;4944623;28;20461;-87
2023/07/09 08:36:59;;;;;;;7.20;6.90;;;42.20;44.60;;;;;;4943479;28;20446;-85
2023/07/09 08:39:27;;;;;;;7.00;6.53;;;42.80;44.30;;;;;;4942025;28;20241;-85
2023/07/09 08:41:59;;;;;;;6.97;6.53;;;43.00;43.90;;;;;;4938877;28;20234;-86
2023/07/09 08:44:43;;;;;;;6.07;5.87;;;43.20;42.40;;;;;;4939563;28;20442;-84
2023/07/09 08:47:24;;;;;;;6.33;6.03;;;43.60;42.20;;;;;;4926371;29;20453;-86
2023/07/09 08:50:00;;;;;;;6.53;5.80;;;43.80;40.30;;;;;;4924218;29;20824;-86
2023/07/09 08:52:31;;;;;;;6.50;5.90;;;44.20;40.00;;;;;;4920958;29;20749;-84
2023/07/09 08:55:02;;;;;;;5.73;5.53;;;44.80;39.50;;;;;;4924368;29;20515;-84
2023/07/09 08:57:34;;;;;;;5.90;5.60;;;45.10;38.40;;;;;;4926856;29;20477;-85
2023/07/09 09:00:07;;;;;;;6.20;5.90;;;44.90;38.60;;;;;;4927981;29;20820;-85
2023/07/09 09:02:44;;;;;;;6.23;5.90;;;44.70;38.00;;;;;;4921086;29;20462;-85
2023/07/09 09:05:12;;;;;;;5.70;5.30;;;45.10;38.30;;;;;;4903537;29;20918;-86
2023/07/09 09:07:42;;;;;;;5.57;5.40;;;;;;;;;;4909944;29;20537;-84
2023/07/09 09:10:23;;;;;;;5.40;5.20;;;44.90;37.10;;;;;;4923144;29;20437;-85
2023/07/09 09:13:11;;;;;;;5.60;5.40;;;44.80;37.90;;;;;;4923033;28;20478;-86
2023/07/09 09:15:40;;;;;;;5.80;5.50;;;44.80;38.20;;;;;;4920298;29;20452;-87
2023/07/09 09:18:27;;;;;;;6.33;5.70;;;44.80;37.80;;;;;;4924051;29;21160;-85
2023/07/09 09:21:03;;;;;;;5.60;4.80;;;45.10;37.70;;;;;;4921810;29;20470;-86
2023/07/09 09:23:38;;;;;;;5.67;5.17;;;45.80;36.90;;;;;;4929645;29;20446;-87
2023/07/09 09:26:14;;;;;;;4.80;4.63;;;45.60;36.40;;;;;;4929812;29;20522;-87
2023/07/09 09:28:39;;;;;;;5.93;5.43;;;45.40;36.60;;;;;;4924189;29;20440;-88
2023/07/09 09:31:07;;;;;;;5.53;5.00;;;45.70;36.80;;;;;;4942443;29;20454;-89
2023/07/09 09:33:44;;;;;;;4.93;4.73;;;45.80;36.10;;;;;;4938040;29;20301;-86
2023/07/09 09:36:24;;;;;;;5.83;5.63;;;45.90;36.50;;;;;;4920393;29;20541;-86
2023/07/09 09:38:51;;;;;;;5.57;5.17;;;46.10;36.10;;;;;;4940689;29;20463;-89
2023/07/09 09:41:18;;;;;;;5.10;4.90;;;46.20;36.20;;;;;;4945647;29;20432;-86
2023/07/09 09:43:46;;;;;;;5.57;5.17;;;46.90;38.40;;;;;;4945803;28;20432;-87
2023/07/09 09:46:21;;;;;;;4.77;4.57;;;47.00;38.30;;;;;;4942879;29;20448;-87
2023/07/09 09:48:49;;;;;;;5.17;4.77;;;47.30;39.00;;;;;;4932851;29;20941;-87
2023/07/09 09:51:16;;;;;;;4.47;4.10;;;47.10;37.80;;;;;;4938732;29;20427;-87
2023/07/09 09:53:50;;;;;;;5.30;4.90;;;46.80;37.20;;;;;;4940221;29;20470;-87
2023/07/09 09:56:33;;;;;;;5.07;4.70;;;46.10;37.70;;;;;;4945092;29;20407;-85
2023/07/09 09:58:59;;;;;;;6.43;5.20;;;45.80;38.70;;;;;;4942509;29;20438;-85
2023/07/09 10:01:29;;;;;;;5.03;4.53;;;46.10;36.60;;;;;;4943643;29;20995;-85
2023/07/09 10:03:57;;;;;;;5.30;4.90;;;45.90;36.00;;;;;;4947269;29;20458;-87
2023/07/09 10:06:48;;;;;;;4.97;4.77;;;45.60;36.10;;;;;;4950466;28;20434;-84
2023/07/09 10:09:37;;;;;;;4.87;4.70;;;46.00;36.30;;;;;;4932668;29;20446;-86
2023/07/09 10:12:02;;;;;;;4.87;4.63;;;46.30;36.40;;;;;;4917450;29;21021;-87
2023/07/09 10:14:46;;;;;;;5.03;4.70;;;46.00;37.00;;;;;;4942360;29;20525;-86
2023/07/09 10:17:30;;;;;;;4.90;4.50;;;46.40;36.70;;;;;;4938011;29;20231;-87
2023/07/09 10:20:15;;;;;;;4.30;4.20;;;46.60;35.80;;;;;;4919957;29;20448;-86
2023/07/09 10:23:02;;;;;;;5.03;4.87;;;46.80;35.80;;;;;;4924184;29;20926;-86
2023/07/09 10:25:52;;;;;;;4.60;4.33;;;46.90;36.20;;;;;;4932126;29;20481;-86
2023/07/09 10:28:43;;;;;;;3.90;3.80;;;47.20;35.80;;;;;;4932505;29;20510;-86
2023/07/09 10:31:22;;;;;;;7.00;6.50;;;47.00;35.80;;;;;;4933187;29;20942;-86
2023/07/09 10:34:05;;;;;;;4.30;4.20;;;47.20;35.60;;;;;;4938218;29;20927;-87
2023/07/09 10:36:47;;;;;;;4.57;4.47;;;47.50;35.40;;;;;;4917279;29;20447;-86
2023/07/09 10:39:15;;;;;;;4.93;4.60;;;47.60;35.60;;;;;;4936692;29;20436;-86
2023/07/09 10:41:43;;;;;;;4.80;4.50;;;46.60;36.60;;;;;;4941549;29;20448;-84
2023/07/09 10:44:25;;;;;;;4.30;4.10;;;46.60;36.90;;;;;;4922671;29;20443;-85
2023/07/09 10:46:58;;;;;;;4.40;4.27;;;47.00;37.20;;;;;;4935245;29;20484;-86
2023/07/09 10:49:32;;;;;;;4.73;4.53;;;47.30;36.30;;;;;;4910100;29;20460;-85
2023/07/09 10:52:12;;;;;;;4.13;4.00;;;47.00;36.20;;;;;;4907936;29;20467;-86
2023/07/09 10:55:05;;;;;;;4.17;4.00;;;46.30;35.70;;;;;;4908142;29;21054;-84
2023/07/09 10:57:43;;;;;;;3.93;3.73;;;45.90;35.60;;;;;;4911973;29;20435;-84
2023/07/09 11:00:19;;;;;;;11.33;9.10;;;46.10;34.50;;;;;;4918680;29;20455;-87
2023/07/09 11:02:47;;;;;;;4.00;3.80;;;45.70;34.70;;;;;;4920307;29;20436;-83
2023/07/09 11:05:13;;;;;;;4.43;4.23;;;45.90;34.80;;;;;;4916606;29;20446;-85
2023/07/09 11:08:05;;;;;;;3.60;3.37;;;46.50;34.80;;;;;;4919786;29;20460;-85
2023/07/09 11:10:46;;;;;;;3.80;3.67;;;46.90;34.40;;;;;;4911571;29;20200;-84
2023/07/09 11:13:39;;;;;;;8.03;7.47;;;47.50;34.40;;;;;;4915395;29;20486;-85
2023/07/09 11:16:09;;;;;;;7.00;5.37;;;46.60;33.70;;;;;;4905833;29;20456;-85
2023/07/09 11:18:35;;;;;;;4.60;4.40;;;45.70;34.40;;;;;;4912638;29;20436;-86
2023/07/09 11:21:05;;;;;;;4.37;3.90;;;45.70;34.50;;;;;;4918803;29;20463;-86
2023/07/09 11:23:53;;;;;;;4.37;4.07;;;45.80;35.70;;;;;;4917392;29;20523;-88
2023/07/09 11:26:25;;;;;;;4.30;4.20;;;46.00;35.60;;;;;;4917473;29;20452;-84
2023/07/09 11:29:05;;;;;;;3.97;3.77;;;46.60;35.40;;;;;;4911639;29;20530;-85
2023/07/09 11:31:48;;;;;;;4.27;4.17;;;46.20;35.80;;;;;;4914652;29;20441;-84
2023/07/09 11:34:13;;;;;;;3.80;3.70;;;46.60;36.50;;;;;;4909128;29;20453;-85
2023/07/09 11:37:00;;;;;;;4.97;4.50;;;46.90;36.70;;;;;;4909810;29;20575;-86
2023/07/09 11:39:32;;;;;;;3.90;3.73;;;47.40;33.90;;;;;;4914404;29;20628;-85
2023/07/09 11:41:58;;;;;;;3.30;3.20;;;47.70;33.80;;;;;;4896546;29;20531;-81
2023/07/09 11:44:29;;;;;;;5.07;4.87;;;47.60;33.50;;;;;;4913740;29;20484;-83
2023/07/09 11:47:30;;;;;;;4.00;3.80;;;47.60;33.60;;;;;;4918960;29;20452;-85
2023/07/09 11:50:21;;;;;;;5.20;4.87;;;47.60;33.80;;;;;;4898438;29;20466;-84
2023/07/09 11:52:58;;;;;;;4.33;4.23;;;45.90;32.70;;;;;;4915265;29;20482;-86
2023/07/09 11:55:42;;;;;;;4.13;3.90;;;46.20;33.50;;;;;;4928029;29;20418;-81
2023/07/09 11:58:12;;;;;;;5.10;4.30;;;46.40;33.90;;;;;;4927634;29;20433;-85
2023/07/09 12:00:50;;;;;;;3.97;3.87;;;45.60;34.00;;;;;;4929598;29;20431;-83
2023/07/09 12:03:20;;;;;;;4.20;4.00;;;45.00;34.70;;;;;;4898160;29;20444;-85
2023/07/09 12:05:52;;;;;;;4.53;4.43;;;45.20;35.90;;;;;;4930318;29;20416;-87
2023/07/09 12:08:26;;;;;;;4.00;4.00;;;45.40;35.20;;;;;;4927788;29;20524;-87
2023/07/09 12:10:53;;;;;;;4.60;4.30;;;45.90;36.10;;;;;;4913930;29;20508;-85
2023/07/09 12:13:18;;;;;;;5.10;4.97;;;46.20;34.00;;;;;;4925229;29;20491;-84
2023/07/09 12:15:45;;;;;;;5.03;4.93;;;46.80;33.50;;;;;;4928455;29;20443;-86
2023/07/09 12:18:13;;;;;;;4.53;4.23;;;46.80;33.20;;;;;;4919862;29;20680;-84
2023/07/09 12:20:40;;;;;;;4.30;4.10;;;46.70;33.20;;;;;;4915819;29;20514;-85
2023/07/09 12:23:29;;;;;;;3.90;3.80;;;45.90;33.30;;;;;;4890838;29;20476;-85
2023/07/09 12:25:54;;;;;;;3.87;3.87;;;45.70;33.90;;;;;;4912630;29;20444;-84
2023/07/09 12:28:22;;;;;;;3.87;3.87;;;45.20;34.00;;;;;;4910901;29;20446;-82
2023/07/09 12:30:49;;;;;;;4.10;3.90;;;45.40;34.30;;;;;;4918383;29;20226;-85
2023/07/09 12:33:33;;;;;;;4.13;4.03;;;45.10;34.20;;;;;;4914443;29;20471;-85
2023/07/09 12:36:05;;;;;;;4.17;4.07;;;44.70;34.30;;;;;;4909319;29;20459;-84
2023/07/09 12:38:44;;;;;;;5.13;4.80;;;44.40;34.90;;;;;;4917405;29;20455;-85
2023/07/09 12:41:23;;;;;;;4.97;4.77;;;44.10;34.80;;;;;;4895261;29;20475;-84
2023/07/09 12:43:51;;;;;;;4.33;4.23;;;43.80;35.00;;;;;;4922951;29;20443;-85
2023/07/09 12:46:18;;;;;;;6.07;5.67;;;43.40;35.40;;;;;;4926531;29;20822;-85
2023/07/09 12:48:46;;;;;;;6.27;5.97;;;43.00;35.80;;;;;;4901386;29;20479;-85
2023/07/09 12:51:24;;;;;;;5.10;4.80;;;43.00;36.40;;;;;;4914731;29;20444;-85
2023/07/09 12:54:12;;;;;;;5.03;4.70;;;43.40;36.50;;;;;;4919044;29;20482;-82
2023/07/09 12:56:38;;;;;;;5.13;4.93;;;44.10;36.70;;;;;;4926882;29;20474;-85
2023/07/09 12:59:19;;;;;;;5.17;5.03;;;44.30;38.50;;;;;;4909882;29;20468;-83
2023/07/09 13:01:55;;;;;;;6.73;4.80;;;44.10;37.10;;;;;;4906675;29;20220;-82
2023/07/09 13:04:20;;;;;;;5.47;5.20;;;43.40;36.10;;;;;;4905221;29;20937;-83
2023/07/09 13:06:47;;;;;;;5.63;5.20;;;42.70;37.00;;;;;;4913667;29;20481;-85
2023/07/09 13:09:31;;;;;;;5.43;5.13;;;42.40;37.80;;;;;;4905067;29;20184;-84
2023/07/09 13:11:58;;;;;;;5.80;5.30;;;41.90;37.70;;;;;;4910264;29;20459;-85
2023/07/09 13:14:30;;;;;;;6.37;5.83;;;41.30;37.00;;;;;;4909563;29;21026;-84
2023/07/09 13:17:04;;;;;;;5.27;5.00;;;40.80;37.30;;;;;;4917076;29;20439;-86
2023/07/09 13:19:29;;;;;;;6.07;5.77;;;40.50;36.70;;;;;;4909636;29;20448;-84
2023/07/09 13:21:55;;;;;;;6.80;6.00;;;40.30;37.10;;;;;;4911047;29;20852;-85
2023/07/09 13:24:24;;;;;;;4.80;4.70;;;40.00;37.30;;;;;;4913451;29;20218;-86